Idaho Falls, Idaho
Current Conditions -  °F | °C
As of 4:53 PM on Sunday 23 Nov 2014 (Local Time) from KIDA Reporting Station
Scattered Clouds Scattered Clouds  
Wind Chill: 25°   Ceiling: Unl
Heat Index: 35°   Visibility: 10mi
Dew Point: 26°   Wind: 16mph
Humidity: 70%   Direction: 230°SW
Pressure: 30.11"   Gusts: 25mph
Location:  43.49°N, 112.04°W
Report Text: KIDA 232353Z 23014G22KT 10SM SCT070 02/M03 A3011 RMK AO2 SLP219 T00171033 10039 20011 55003
Loading
Personal Weather Stations






























Interactive Weather Map New forecast layout! Learn more

10-Day Weather Forecast

Advertisements
Track Severe Weather on mobile